Time;durP1;ratioP1;P1;durP2;ratioP2;P2;SDS_P1;SDS_P2;PMS_P1;PMS_P2;Temp;Humidity;BMP_temperature;BMP_pressure;BME280_temperature;BME280_humidity;BME280_pressure;Samples;Min_cycle;Max_cycle;Signal;HPM_P1;HPM_P2
2022/09/03 00:01:34;;;;;;;5.40;1.55;;;17.20;92.30;;;;;;5058721;28;20072;-75
2022/09/03 00:04:11;;;;;;;6.38;1.45;;;17.30;92.20;;;;;;5032540;28;20041;-76
2022/09/03 00:06:47;;;;;;;5.20;1.38;;;17.30;92.40;;;;;;5049553;28;20117;-75
2022/09/03 00:09:21;;;;;;;2.22;1.20;;;17.10;92.40;;;;;;5043033;28;20048;-77
2022/09/03 00:11:50;;;;;;;5.55;1.40;;;17.20;92.30;;;;;;5028626;28;20090;-76
2022/09/03 00:14:23;;;;;;;5.63;1.13;;;17.20;92.30;;;;;;5059288;28;20079;-78
2022/09/03 00:16:57;;;;;;;1.20;0.88;;;17.10;92.40;;;;;;5043992;28;20065;-75
2022/09/03 00:19:32;;;;;;;1.92;1.13;;;17.20;92.40;;;;;;5042936;28;20045;-73
2022/09/03 00:22:10;;;;;;;7.07;1.10;;;17.20;92.40;;;;;;5048268;28;20395;-73
2022/09/03 00:24:39;;;;;;;3.97;1.00;;;17.10;92.40;;;;;;5025880;28;20037;-76
2022/09/03 00:27:11;;;;;;;7.72;0.98;;;17.10;92.50;;;;;;5054557;28;20484;-75
2022/09/03 00:29:45;;;;;;;2.55;0.90;;;17.10;92.50;;;;;;5044826;28;20095;-76
2022/09/03 00:32:18;;;;;;;2.40;0.80;;;17.10;92.50;;;;;;5041707;28;20080;-73
2022/09/03 00:34:49;;;;;;;1.75;0.90;;;17.10;92.50;;;;;;5044852;28;20084;-75
2022/09/03 00:37:15;;;;;;;3.42;1.08;;;17.10;92.40;;;;;;5063130;28;20048;-76
2022/09/03 00:39:41;;;;;;;2.30;0.75;;;17.10;92.40;;;;;;5028377;28;20033;-75
2022/09/03 00:42:12;;;;;;;7.07;1.13;;;16.90;92.50;;;;;;5058724;28;20391;-76
2022/09/03 00:44:48;;;;;;;2.95;1.10;;;17.00;92.50;;;;;;5044367;28;20033;-75
2022/09/03 00:47:29;;;;;;;4.40;1.08;;;17.00;92.60;;;;;;5044357;28;20044;-76
2022/09/03 00:50:13;;;;;;;5.90;1.50;;;16.90;92.70;;;;;;5046638;28;20044;-75
2022/09/03 00:53:03;;;;;;;2.95;1.77;;;16.80;92.80;;;;;;5050231;28;20115;-76
2022/09/03 00:55:46;;;;;;;4.93;2.65;;;16.80;92.90;;;;;;5044236;28;20048;-75
2022/09/03 00:58:36;;;;;;;8.75;2.40;;;16.80;93.00;;;;;;5034726;28;20488;-75
2022/09/03 01:01:14;;;;;;;6.18;3.20;;;16.70;93.10;;;;;;5042431;28;20400;-77
2022/09/03 01:03:53;;;;;;;7.95;3.50;;;16.80;93.00;;;;;;5039960;28;20041;-75
2022/09/03 01:06:57;;;;;;;8.82;3.80;;;16.70;93.00;;;;;;5016444;28;20525;-76
2022/09/03 01:09:35;;;;;;;6.40;4.05;;;16.70;93.00;;;;;;5033066;28;20048;-75
2022/09/03 01:12:12;;;;;;;4.93;3.05;;;16.70;93.10;;;;;;5043759;28;20432;-75
2022/09/03 01:14:54;;;;;;;15.75;3.38;;;16.60;93.10;;;;;;5026958;28;20136;-74
2022/09/03 01:17:47;;;;;;;8.60;2.60;;;16.60;93.20;;;;;;5044120;28;20045;-75
2022/09/03 01:20:21;;;;;;;7.03;2.20;;;16.60;93.20;;;;;;5041103;28;20079;-74
2022/09/03 01:23:09;;;;;;;6.53;1.67;;;16.60;93.30;;;;;;5028657;28;20120;-75
2022/09/03 01:25:47;;;;;;;3.20;1.52;;;16.40;93.40;;;;;;5042841;28;20187;-75
2022/09/03 01:28:13;;;;;;;1.65;1.00;;;16.50;93.40;;;;;;5045494;28;20056;-76
2022/09/03 01:31:10;;;;;;;3.63;1.50;;;16.50;93.40;;;;;;5045167;28;20041;-76
2022/09/03 01:33:57;;;;;;;4.72;0.93;;;16.40;93.60;;;;;;5027777;28;20133;-77
2022/09/03 01:36:43;;;;;;;2.72;1.02;;;16.40;93.60;;;;;;5033527;28;20459;-76
2022/09/03 01:39:20;;;;;;;3.22;0.95;;;16.30;93.70;;;;;;5032141;28;20044;-75
2022/09/03 01:42:15;;;;;;;2.63;0.93;;;16.30;93.80;;;;;;5052950;28;20508;-74
2022/09/03 01:44:44;;;;;;;2.15;1.27;;;16.30;93.70;;;;;;5039867;28;20037;-76
2022/09/03 01:47:32;;;;;;;3.58;1.02;;;16.20;93.80;;;;;;5034168;28;20091;-77
2022/09/03 01:50:26;;;;;;;2.70;0.80;;;16.30;93.80;;;;;;5048339;28;20512;-75
2022/09/03 01:53:16;;;;;;;3.28;1.20;;;16.20;93.80;;;;;;5068852;28;20337;-75
2022/09/03 01:56:19;;;;;;;7.25;1.00;;;16.20;93.90;;;;;;5045622;28;20040;-75
2022/09/03 01:59:07;;;;;;;2.75;1.00;;;16.20;93.80;;;;;;5048028;28;20142;-75
2022/09/03 02:01:42;;;;;;;2.15;1.13;;;16.20;93.80;;;;;;5063726;28;20495;-74
2022/09/03 02:04:22;;;;;;;9.95;1.10;;;16.20;93.90;;;;;;5044576;28;20164;-75
2022/09/03 02:06:52;;;;;;;6.32;1.13;;;16.20;94.00;;;;;;5045577;28;20048;-77
2022/09/03 02:09:19;;;;;;;8.93;0.73;;;16.00;94.10;;;;;;5048011;28;20429;-75
2022/09/03 02:11:59;;;;;;;6.95;1.08;;;16.00;94.10;;;;;;5064871;28;20163;-77
2022/09/03 02:14:26;;;;;;;6.50;1.00;;;16.00;94.30;;;;;;5050517;28;20063;-74
2022/09/03 02:16:54;;;;;;;7.15;1.20;;;16.00;94.20;;;;;;5034500;28;20037;-75
2022/09/03 02:19:20;;;;;;;2.00;0.88;;;16.10;94.20;;;;;;5014594;28;20040;-76
2022/09/03 02:21:51;;;;;;;3.90;1.10;;;15.90;94.30;;;;;;5033029;28;20519;-74
2022/09/03 02:24:17;;;;;;;2.40;0.90;;;15.90;94.30;;;;;;5048698;28;20113;-77
2022/09/03 02:26:46;;;;;;;2.10;0.93;;;15.80;94.40;;;;;;5043296;28;20045;-75
2022/09/03 02:29:19;;;;;;;2.78;0.90;;;15.80;94.60;;;;;;5044414;28;20037;-74
2022/09/03 02:31:45;;;;;;;4.25;1.00;;;15.80;94.70;;;;;;5029799;28;20189;-76
2022/09/03 02:34:11;;;;;;;1.98;0.93;;;15.80;94.70;;;;;;5046229;28;20528;-76
2022/09/03 02:36:40;;;;;;;3.15;0.88;;;15.80;94.70;;;;;;5034004;28;20526;-75
2022/09/03 02:39:06;;;;;;;7.70;1.20;;;15.70;95.00;;;;;;5058290;28;20540;-75
2022/09/03 02:41:32;;;;;;;6.07;0.90;;;15.70;95.00;;;;;;5046907;28;20116;-74
2022/09/03 02:44:04;;;;;;;1.48;0.90;;;15.60;95.20;;;;;;5047169;28;20480;-75
2022/09/03 02:46:43;;;;;;;5.40;1.13;;;15.60;95.40;;;;;;5029067;28;20033;-73
2022/09/03 02:49:09;;;;;;;3.85;0.93;;;15.50;95.60;;;;;;5032055;28;20036;-76
2022/09/03 02:51:38;;;;;;;3.97;1.10;;;15.50;95.50;;;;;;5030711;28;20045;-76
2022/09/03 02:54:04;;;;;;;2.90;1.08;;;15.40;95.70;;;;;;5042922;28;20034;-74
2022/09/03 02:56:30;;;;;;;4.07;1.20;;;15.40;95.90;;;;;;5048345;28;20500;-75
2022/09/03 02:58:55;;;;;;;5.32;1.02;;;15.40;95.90;;;;;;5045319;28;20053;-74
2022/09/03 03:01:22;;;;;;;5.03;1.10;;;15.30;96.00;;;;;;5033223;28;20372;-74
2022/09/03 03:03:52;;;;;;;1.30;0.98;;;15.30;96.10;;;;;;5063221;28;20044;-74
2022/09/03 03:06:21;;;;;;;0.98;0.95;;;15.20;96.40;;;;;;5061911;28;20045;-74
2022/09/03 03:08:48;;;;;;;1.25;0.88;;;15.30;96.40;;;;;;5045050;28;20067;-75
2022/09/03 03:11:18;;;;;;;4.47;1.23;;;15.30;96.50;;;;;;5045697;28;20091;-75
2022/09/03 03:13:47;;;;;;;3.10;1.05;;;15.20;96.50;;;;;;5030141;28;20033;-76
2022/09/03 03:16:14;;;;;;;4.22;1.10;;;15.10;96.70;;;;;;5048896;28;20033;-74
2022/09/03 03:18:40;;;;;;;7.82;1.30;;;15.10;96.90;;;;;;5043816;28;20530;-74
2022/09/03 03:21:10;;;;;;;4.00;1.20;;;15.00;96.80;;;;;;5047735;28;20506;-74
2022/09/03 03:23:37;;;;;;;6.57;1.10;;;15.00;97.00;;;;;;5049599;28;20437;-73
2022/09/03 03:26:05;;;;;;;2.08;1.20;;;15.00;97.00;;;;;;5030212;28;21637;-74
2022/09/03 03:28:35;;;;;;;4.30;1.10;;;15.00;97.20;;;;;;5054846;28;20074;-75
2022/09/03 03:31:11;;;;;;;1.40;1.20;;;15.00;97.20;;;;;;5049362;28;20085;-76
2022/09/03 03:33:37;;;;;;;6.47;1.38;;;15.00;97.20;;;;;;5034086;28;20073;-75
2022/09/03 03:36:14;;;;;;;1.55;1.10;;;15.00;97.20;;;;;;5048013;28;20041;-75
2022/09/03 03:38:41;;;;;;;1.33;1.10;;;15.00;97.30;;;;;;5046242;28;20044;-75
2022/09/03 03:41:30;;;;;;;2.22;1.30;;;15.00;97.50;;;;;;5052397;28;20033;-74
2022/09/03 03:43:58;;;;;;;1.23;0.90;;;14.90;97.40;;;;;;5046412;28;20187;-74
2022/09/03 03:46:24;;;;;;;7.75;1.42;;;15.00;97.50;;;;;;5046503;28;20325;-75
2022/09/03 03:48:51;;;;;;;3.58;1.20;;;15.00;97.50;;;;;;5060255;28;20122;-76
2022/09/03 03:51:17;;;;;;;2.85;1.10;;;15.00;97.40;;;;;;5060146;28;20071;-76
2022/09/03 03:53:44;;;;;;;6.32;1.17;;;15.20;97.40;;;;;;5046475;28;20171;-75
2022/09/03 03:56:13;;;;;;;3.42;1.20;;;15.10;97.30;;;;;;5050241;28;20436;-74
2022/09/03 03:58:43;;;;;;;3.67;1.10;;;15.10;97.40;;;;;;5046601;28;20052;-74
2022/09/03 04:01:15;;;;;;;4.38;1.10;;;15.20;97.40;;;;;;5056781;28;20049;-75
2022/09/03 04:03:41;;;;;;;2.28;1.27;;;15.30;97.30;;;;;;5047574;28;20068;-76
2022/09/03 04:06:08;;;;;;;1.40;1.10;;;15.30;97.20;;;;;;5035105;28;20119;-74
2022/09/03 04:08:37;;;;;;;1.75;1.25;;;15.30;97.20;;;;;;5031589;28;20127;-76
2022/09/03 04:11:04;;;;;;;1.20;1.05;;;15.30;97.30;;;;;;5045998;28;20477;-76
2022/09/03 04:13:33;;;;;;;2.40;1.10;;;15.30;97.30;;;;;;5030081;28;20103;-75
2022/09/03 04:16:08;;;;;;;3.80;1.10;;;15.40;97.30;;;;;;5027829;28;20045;-75
2022/09/03 04:18:34;;;;;;;;;;;15.30;97.30;;;;;;5044112;28;20059;-76
2022/09/03 04:21:08;;;;;;;6.40;1.20;;;15.40;97.20;;;;;;5040744;28;19985;-74
2022/09/03 04:23:37;;;;;;;5.07;1.27;;;15.40;97.30;;;;;;5024723;28;20049;-76
2022/09/03 04:26:03;;;;;;;1.92;1.20;;;15.40;97.30;;;;;;5044921;28;20048;-74
2022/09/03 04:28:29;;;;;;;3.03;1.27;;;15.30;97.40;;;;;;5056075;28;20480;-76
2022/09/03 04:31:03;;;;;;;1.75;1.20;;;15.30;97.50;;;;;;5028084;28;20052;-74
2022/09/03 04:33:31;;;;;;;3.27;1.30;;;15.30;97.50;;;;;;5046209;28;20128;-74
2022/09/03 04:36:07;;;;;;;3.00;1.00;;;15.30;97.60;;;;;;5059348;28;20048;-73
2022/09/03 04:38:34;;;;;;;3.60;1.50;;;15.30;97.60;;;;;;5041448;28;20085;-76
2022/09/03 04:41:02;;;;;;;2.78;1.40;;;15.30;97.70;;;;;;5043323;28;20140;-75
2022/09/03 04:43:28;;;;;;;5.53;1.23;;;15.30;97.70;;;;;;5055395;28;20041;-74
2022/09/03 04:46:02;;;;;;;4.93;1.73;;;15.20;97.80;;;;;;5027322;28;20431;-75
2022/09/03 04:48:29;;;;;;;2.30;1.38;;;15.20;97.90;;;;;;5028527;28;20058;-73
2022/09/03 04:51:06;;;;;;;1.92;1.38;;;15.10;98.00;;;;;;5063273;28;20087;-75
2022/09/03 04:53:37;;;;;;;4.45;1.30;;;15.20;98.10;;;;;;5056132;28;20177;-74
2022/09/03 04:56:16;;;;;;;1.67;1.23;;;15.20;98.20;;;;;;5034972;28;20568;-74
2022/09/03 04:58:42;;;;;;;6.13;1.45;;;15.10;98.30;;;;;;5048630;28;20052;-75
2022/09/03 05:01:20;;;;;;;1.80;1.35;;;15.10;98.30;;;;;;5034549;28;20033;-73
2022/09/03 05:03:47;;;;;;;5.45;1.55;;;15.10;98.40;;;;;;5053747;28;20041;-74
2022/09/03 05:06:15;;;;;;;2.13;0.95;;;15.10;98.40;;;;;;5039919;28;20148;-74
2022/09/03 05:08:42;;;;;;;3.75;1.70;;;15.20;98.40;;;;;;5048487;28;20079;-74
2022/09/03 05:11:09;;;;;;;4.22;1.60;;;15.10;98.40;;;;;;5041330;28;20071;-75
2022/09/03 05:13:35;;;;;;;5.28;1.40;;;15.10;98.50;;;;;;5026627;28;20073;-74
2022/09/03 05:16:05;;;;;;;1.98;1.20;;;15.10;98.60;;;;;;5029008;28;20090;-74
2022/09/03 05:18:31;;;;;;;4.97;1.60;;;15.00;98.70;;;;;;5044611;28;20096;-73
2022/09/03 05:21:03;;;;;;;4.68;1.45;;;15.00;98.80;;;;;;5032290;28;20090;-75
2022/09/03 05:23:30;;;;;;;1.90;1.42;;;15.10;98.80;;;;;;5030844;28;20612;-76
2022/09/03 05:26:01;;;;;;;1.83;1.20;;;15.10;98.80;;;;;;5046214;28;20075;-76
2022/09/03 05:28:29;;;;;;;5.63;1.50;;;15.10;98.90;;;;;;5051411;28;20045;-75
2022/09/03 05:31:07;;;;;;;7.43;1.85;;;15.20;98.70;;;;;;5057252;28;20261;-73
2022/09/03 05:33:34;;;;;;;2.47;1.60;;;15.20;98.60;;;;;;5040421;28;20043;-72
2022/09/03 05:36:05;;;;;;;4.00;1.40;;;15.20;99.10;;;;;;5043106;28;20053;-76
2022/09/03 05:38:31;;;;;;;2.55;1.50;;;15.20;98.80;;;;;;5025784;28;20041;-74
2022/09/03 05:41:05;;;;;;;4.07;1.55;;;15.20;98.90;;;;;;5046021;28;20072;-74
2022/09/03 05:43:32;;;;;;;6.25;1.50;;;15.20;98.90;;;;;;5053026;28;20428;-76
2022/09/03 05:46:01;;;;;;;3.50;1.50;;;15.20;98.90;;;;;;5025680;28;20157;-74
2022/09/03 05:48:29;;;;;;;1.60;1.50;;;15.30;98.80;;;;;;5025263;28;20041;-74
2022/09/03 05:51:06;;;;;;;3.30;1.33;;;15.30;98.80;;;;;;5043341;28;20060;-76
2022/09/03 05:53:35;;;;;;;6.63;1.60;;;15.30;99.00;;;;;;5037687;28;20362;-76
2022/09/03 05:56:04;;;;;;;4.72;1.60;;;15.30;99.00;;;;;;5032379;28;20040;-73
2022/09/03 05:58:35;;;;;;;3.00;1.30;;;15.30;98.90;;;;;;5036644;28;20060;-75
2022/09/03 06:01:27;;;;;;;2.15;1.63;;;15.30;99.10;;;;;;5045999;28;20484;-75
2022/09/03 06:03:59;;;;;;;3.30;1.40;;;15.20;98.90;;;;;;5025796;28;20071;-75
2022/09/03 06:06:25;;;;;;;1.83;1.40;;;15.20;99.00;;;;;;5045607;28;20036;-74
2022/09/03 06:08:53;;;;;;;4.30;1.60;;;15.20;99.10;;;;;;5043052;28;20095;-74
2022/09/03 06:11:22;;;;;;;7.72;1.90;;;15.20;99.20;;;;;;5032917;28;20029;-76
2022/09/03 06:13:47;;;;;;;1.80;1.55;;;15.10;99.40;;;;;;5040970;28;20140;-76
2022/09/03 06:16:14;;;;;;;2.60;1.65;;;15.10;99.40;;;;;;5054941;28;20118;-74
2022/09/03 06:18:40;;;;;;;4.65;1.50;;;15.20;99.30;;;;;;5036735;28;20424;-74
2022/09/03 06:21:06;;;;;;;3.60;1.50;;;15.20;99.40;;;;;;5040236;28;20067;-77
2022/09/03 06:23:33;;;;;;;6.57;1.48;;;15.20;99.50;;;;;;5033305;28;20106;-74
2022/09/03 06:26:11;;;;;;;3.15;1.70;;;15.30;99.80;;;;;;5066219;28;20060;-77
2022/09/03 06:28:44;;;;;;;4.25;1.63;;;15.30;99.70;;;;;;5042497;28;20060;-76
2022/09/03 06:31:12;;;;;;;6.35;1.50;;;15.40;99.40;;;;;;5049968;28;20029;-78
2022/09/03 06:33:40;;;;;;;4.63;1.52;;;15.40;99.30;;;;;;5031507;28;20048;-75
2022/09/03 06:36:14;;;;;;;5.97;1.52;;;15.40;99.40;;;;;;5048031;28;20048;-74
2022/09/03 06:38:41;;;;;;;1.80;1.40;;;15.50;99.40;;;;;;5040283;28;20119;-74
2022/09/03 06:41:10;;;;;;;3.10;1.50;;;15.50;99.40;;;;;;5024026;28;20418;-75
2022/09/03 06:43:38;;;;;;;1.58;1.38;;;15.50;99.20;;;;;;5059965;28;20048;-75
2022/09/03 06:46:05;;;;;;;5.90;1.60;;;15.50;99.30;;;;;;5030621;28;20097;-77
2022/09/03 06:48:32;;;;;;;3.53;1.30;;;15.60;99.50;;;;;;5064319;28;20041;-73
2022/09/03 06:51:10;;;;;;;2.05;1.48;;;15.60;99.40;;;;;;5027767;28;20479;-73
2022/09/03 06:53:38;;;;;;;7.45;1.50;;;15.70;99.20;;;;;;5063513;28;20120;-74
2022/09/03 06:56:07;;;;;;;8.75;1.58;;;15.90;99.10;;;;;;5031378;28;20041;-75
2022/09/03 06:58:37;;;;;;;2.85;1.55;;;15.80;99.20;;;;;;5046270;28;20053;-77
2022/09/03 07:01:15;;;;;;;2.38;1.50;;;15.90;99.00;;;;;;5045349;28;20079;-74
2022/09/03 07:03:43;;;;;;;3.70;1.20;;;16.00;98.60;;;;;;5043266;28;20037;-76
2022/09/03 07:06:14;;;;;;;5.28;1.75;;;16.10;98.80;;;;;;5044474;28;20508;-74
2022/09/03 07:08:41;;;;;;;2.40;1.52;;;16.10;98.60;;;;;;5049549;28;20075;-75
2022/09/03 07:11:18;;;;;;;5.93;1.67;;;16.20;99.00;;;;;;5045174;28;20043;-75
2022/09/03 07:13:50;;;;;;;7.93;1.38;;;16.30;98.60;;;;;;5026221;28;20114;-75
2022/09/03 07:16:22;;;;;;;2.63;1.50;;;16.40;98.60;;;;;;5043119;28;20049;-75
2022/09/03 07:18:51;;;;;;;6.93;1.90;;;16.40;98.30;;;;;;5043516;28;20044;-76
2022/09/03 07:21:19;;;;;;;4.18;1.38;;;16.50;98.30;;;;;;5037965;28;20176;-75
2022/09/03 07:23:45;;;;;;;5.38;1.40;;;16.50;97.90;;;;;;5036697;28;20048;-77
2022/09/03 07:26:15;;;;;;;3.67;1.20;;;16.70;98.00;;;;;;5044530;28;20129;-75
2022/09/03 07:28:42;;;;;;;5.35;1.50;;;16.60;98.20;;;;;;5020188;28;20041;-76
2022/09/03 07:31:11;;;;;;;3.50;1.60;;;16.70;98.30;;;;;;5027631;28;20037;-76
2022/09/03 07:33:37;;;;;;;3.25;1.52;;;16.70;98.30;;;;;;5040265;28;20106;-75
2022/09/03 07:36:06;;;;;;;6.30;1.77;;;16.80;98.20;;;;;;5041170;28;20037;-73
2022/09/03 07:38:33;;;;;;;9.35;1.67;;;16.90;98.20;;;;;;5056339;28;20048;-74
2022/09/03 07:41:01;;;;;;;2.97;1.63;;;17.00;97.90;;;;;;5039900;28;20076;-76
2022/09/03 07:43:30;;;;;;;1.85;1.42;;;17.10;97.70;;;;;;5039192;28;20038;-75
2022/09/03 07:45:56;;;;;;;4.07;1.50;;;17.20;97.40;;;;;;5040555;28;20106;-75
2022/09/03 07:48:23;;;;;;;6.70;1.50;;;17.20;97.50;;;;;;5058753;28;20400;-75
2022/09/03 07:50:48;;;;;;;4.13;1.63;;;17.30;97.20;;;;;;5056540;28;20041;-75
2022/09/03 07:53:21;;;;;;;1.80;1.40;;;17.40;97.20;;;;;;5044366;28;20041;-75
2022/09/03 07:55:48;;;;;;;1.95;1.30;;;17.40;97.20;;;;;;5057024;28;20048;-78
2022/09/03 07:58:17;;;;;;;8.88;1.52;;;17.50;97.30;;;;;;5039500;28;20417;-76
2022/09/03 08:00:42;;;;;;;4.10;1.30;;;17.50;97.00;;;;;;5046551;28;20083;-75
2022/09/03 08:03:09;;;;;;;7.30;1.58;;;17.60;96.80;;;;;;5028157;28;21003;-75
2022/09/03 08:05:35;;;;;;;3.38;1.35;;;17.70;96.90;;;;;;5041862;28;20077;-77
2022/09/03 08:08:05;;;;;;;4.57;1.40;;;17.70;97.00;;;;;;5024761;28;20123;-74
2022/09/03 08:10:37;;;;;;;3.15;1.30;;;17.80;96.70;;;;;;5045059;28;20047;-72
2022/09/03 08:13:05;;;;;;;3.63;1.40;;;17.80;96.80;;;;;;5045885;28;20048;-77
2022/09/03 08:15:33;;;;;;;4.40;1.55;;;17.90;96.70;;;;;;5041429;28;20041;-76
2022/09/03 08:18:02;;;;;;;5.22;1.60;;;18.00;96.50;;;;;;5043097;28;20052;-76
2022/09/03 08:20:28;;;;;;;5.18;1.40;;;18.00;96.40;;;;;;5036644;28;20041;-78
2022/09/03 08:23:01;;;;;;;5.30;1.40;;;18.10;96.60;;;;;;5029090;28;20044;-76
2022/09/03 08:25:27;;;;;;;4.07;1.13;;;18.20;96.30;;;;;;5042332;28;20033;-74
2022/09/03 08:27:53;;;;;;;4.15;1.33;;;18.20;96.40;;;;;;5027631;28;20095;-76
2022/09/03 08:30:20;;;;;;;5.03;1.20;;;18.30;96.40;;;;;;5048654;28;20444;-76
2022/09/03 08:32:46;;;;;;;7.22;1.30;;;18.40;96.40;;;;;;5046335;28;20269;-76
2022/09/03 08:35:12;;;;;;;3.45;1.20;;;18.40;96.80;;;;;;5047483;28;20036;-76
2022/09/03 08:37:38;;;;;;;3.28;1.30;;;18.60;96.40;;;;;;5046794;28;20083;-75
2022/09/03 08:40:04;;;;;;;2.92;1.58;;;18.60;96.10;;;;;;5041319;28;20107;-75
2022/09/03 08:42:30;;;;;;;6.90;1.30;;;18.70;96.00;;;;;;5046816;28;20037;-77
2022/09/03 08:45:01;;;;;;;2.25;1.30;;;18.90;96.00;;;;;;5032181;28;20132;-74
2022/09/03 08:47:51;;;;;;;1.77;1.13;;;18.90;96.10;;;;;;5064804;28;20033;-74
2022/09/03 08:50:30;;;;;;;4.40;1.30;;;19.00;95.40;;;;;;5045961;28;20080;-76
2022/09/03 08:53:08;;;;;;;4.32;1.40;;;19.10;95.50;;;;;;5048146;28;20469;-74
2022/09/03 08:55:43;;;;;;;8.00;1.20;;;19.20;94.90;;;;;;5040526;28;20029;-76
2022/09/03 08:58:14;;;;;;;4.47;1.42;;;19.20;95.20;;;;;;5030524;28;20432;-75
2022/09/03 09:00:48;;;;;;;4.03;1.45;;;19.20;95.20;;;;;;5060187;28;20061;-79
2022/09/03 09:03:32;;;;;;;1.20;1.10;;;19.30;95.40;;;;;;5060646;28;20106;-77
2022/09/03 09:06:35;;;;;;;8.63;1.40;;;19.30;95.10;;;;;;5047915;28;20319;-79
2022/09/03 09:09:18;;;;;;;3.10;1.33;;;19.40;95.60;;;;;;5047587;28;20121;-78
2022/09/03 09:11:58;;;;;;;4.43;1.40;;;19.60;95.30;;;;;;5064718;28;20561;-79
2022/09/03 09:14:45;;;;;;;4.53;1.30;;;19.60;95.00;;;;;;5039425;28;20033;-81
2022/09/03 09:17:30;;;;;;;2.03;1.17;;;19.70;94.70;;;;;;5040566;28;20079;-79
2022/09/03 09:20:10;;;;;;;2.15;1.20;;;19.70;94.90;;;;;;5060501;28;20033;-77
2022/09/03 09:22:50;;;;;;;1.88;1.35;;;19.80;95.10;;;;;;5045381;28;20036;-78
2022/09/03 09:25:19;;;;;;;4.22;1.50;;;19.90;95.00;;;;;;5039174;28;20128;-80
2022/09/03 09:27:58;;;;;;;3.80;1.20;;;20.00;94.80;;;;;;5034013;28;20045;-78
2022/09/03 09:30:25;;;;;;;5.65;1.13;;;20.10;95.00;;;;;;5061066;28;20061;-78
2022/09/03 09:32:50;;;;;;;4.05;1.38;;;20.10;95.00;;;;;;5045291;28;20041;-79
2022/09/03 09:35:17;;;;;;;10.25;1.45;;;20.20;94.80;;;;;;5030742;28;20416;-79
2022/09/03 09:37:57;;;;;;;4.50;1.40;;;20.30;94.60;;;;;;5029477;28;20055;-78
2022/09/03 09:40:26;;;;;;;2.38;1.17;;;20.40;94.50;;;;;;5042786;28;20472;-81
2022/09/03 09:43:12;;;;;;;3.75;1.23;;;20.60;94.60;;;;;;5041234;28;20373;-78
2022/09/03 09:45:40;;;;;;;2.80;1.40;;;20.70;94.30;;;;;;5031520;28;20047;-79
2022/09/03 09:48:31;;;;;;;3.85;1.25;;;20.80;94.50;;;;;;5045586;28;20754;-77
2022/09/03 09:51:05;;;;;;;5.20;1.30;;;21.00;94.20;;;;;;5064581;28;20181;-79
2022/09/03 09:53:30;;;;;;;2.53;1.20;;;21.10;94.10;;;;;;5048725;28;20068;-80
2022/09/03 09:55:57;;;;;;;2.25;1.20;;;21.10;93.60;;;;;;5033149;28;20075;-78
2022/09/03 09:58:27;;;;;;;5.63;1.10;;;21.30;93.50;;;;;;5063271;28;20057;-77
2022/09/03 10:01:09;;;;;;;5.45;1.33;;;21.50;93.80;;;;;;5048982;28;20056;-79
2022/09/03 10:03:35;;;;;;;2.95;1.35;;;21.70;93.90;;;;;;5033281;28;20059;-76
2022/09/03 10:09:17;;;;;;;2.80;1.38;;;22.00;92.50;;;;;;5063423;28;20115;-80
2022/09/03 10:11:50;;;;;;;2.85;1.00;;;22.10;92.60;;;;;;5014291;28;20055;-80
2022/09/03 10:14:29;;;;;;;7.70;1.10;;;22.30;92.70;;;;;;5001749;28;20067;-80
2022/09/03 10:17:11;;;;;;;6.05;1.20;;;22.50;92.00;;;;;;5019123;28;20123;-76
2022/09/03 10:22:46;;;;;;;2.85;1.17;;;22.70;91.80;;;;;;5023844;28;20053;-76
2022/09/03 10:25:15;;;;;;;7.30;1.17;;;22.90;91.80;;;;;;5012264;28;20081;-76
2022/09/03 10:27:44;;;;;;;3.45;1.08;;;23.10;91.80;;;;;;5009999;28;20457;-79
2022/09/03 10:30:13;;;;;;;5.18;1.20;;;23.30;91.40;;;;;;5032313;28;20049;-76
2022/09/03 10:33:17;;;;;;;7.15;1.10;;;23.60;91.20;;;;;;5033250;28;20104;-80
2022/09/03 10:35:55;;;;;;;3.42;1.20;;;23.70;91.30;;;;;;5018639;28;20057;-76
2022/09/03 10:38:31;;;;;;;6.68;1.15;;;24.00;90.60;;;;;;5014188;28;20571;-79
2022/09/03 10:41:37;;;;;;;5.35;1.30;;;24.10;90.80;;;;;;5012818;28;20057;-78
2022/09/03 10:44:21;;;;;;;4.07;1.17;;;24.20;90.60;;;;;;5014644;28;20472;-80
2022/09/03 10:47:11;;;;;;;5.15;1.50;;;24.50;90.00;;;;;;5031636;28;20059;-80
2022/09/03 10:49:49;;;;;;;2.10;1.05;;;24.60;89.70;;;;;;5051090;28;20040;-78
2022/09/03 10:52:50;;;;;;;4.82;1.00;;;24.80;89.40;;;;;;5064028;28;20045;-78
2022/09/03 10:55:34;;;;;;;5.18;1.13;;;24.90;88.60;;;;;;5046882;28;20067;-78
2022/09/03 10:58:02;;;;;;;4.03;0.93;;;25.20;87.40;;;;;;5049916;28;20049;-81
2022/09/03 11:00:30;;;;;;;5.07;1.02;;;25.30;86.70;;;;;;5039396;28;20103;-79
2022/09/03 11:03:09;;;;;;;4.07;1.10;;;25.40;86.60;;;;;;5041186;28;20122;-78
2022/09/03 11:05:50;;;;;;;2.70;1.10;;;25.80;85.80;;;;;;5061064;28;20063;-78
2022/09/03 11:08:25;;;;;;;7.47;1.20;;;26.00;85.00;;;;;;5032765;28;20045;-78
2022/09/03 11:11:14;;;;;;;4.03;1.00;;;26.00;85.00;;;;;;5037762;28;20369;-80
2022/09/03 11:13:52;;;;;;;4.47;1.00;;;25.90;85.10;;;;;;5030082;28;20037;-80
2022/09/03 11:16:27;;;;;;;13.80;1.02;;;26.20;84.70;;;;;;5044945;28;20037;-80
2022/09/03 11:19:10;;;;;;;5.65;0.90;;;26.10;83.80;;;;;;5063314;28;20049;-80
2022/09/03 11:21:37;;;;;;;9.75;1.30;;;26.40;84.80;;;;;;5041387;28;20042;-79
2022/09/03 11:24:31;;;;;;;9.05;1.13;;;26.50;84.30;;;;;;5031539;28;20041;-80
2022/09/03 11:27:29;;;;;;;4.57;1.00;;;26.60;82.10;;;;;;5043966;28;20068;-80
2022/09/03 11:30:06;;;;;;;2.47;0.90;;;26.80;81.40;;;;;;4987534;28;20498;-80
2022/09/03 11:32:49;;;;;;;3.10;0.95;;;27.00;82.40;;;;;;4973979;28;20504;-80
2022/09/03 11:35:31;;;;;;;1.95;0.80;;;26.80;80.80;;;;;;4985631;28;20051;-81
2022/09/03 11:38:20;;;;;;;2.50;0.93;;;27.10;81.50;;;;;;4972697;28;20380;-80
2022/09/03 11:41:33;;;;;;;7.10;1.10;;;27.30;80.20;;;;;;4988866;28;20390;-82
2022/09/03 11:44:19;;;;;;;4.80;1.13;;;27.10;80.30;;;;;;4909776;29;20174;-81
2022/09/03 11:46:55;;;;;;;2.40;0.95;;;27.40;79.80;;;;;;4914757;29;20055;-82
2022/09/03 11:49:29;;;;;;;3.90;1.00;;;27.60;79.60;;;;;;4916289;29;20063;-81
2022/09/03 11:52:02;;;;;;;;;;;27.80;80.20;;;;;;4934057;29;20044;-82
2022/09/03 11:54:31;;;;;;;8.05;1.02;;;27.50;77.90;;;;;;4905252;29;19925;-81
2022/09/03 11:57:10;;;;;;;10.00;1.10;;;27.80;77.10;;;;;;4903149;29;20586;-80
2022/09/03 11:59:36;;;;;;;3.35;0.80;;;27.70;77.60;;;;;;4899334;29;20047;-81
2022/09/03 12:02:28;;;;;;;4.95;1.00;;;28.00;78.40;;;;;;4900807;29;20055;-82
2022/09/03 12:05:14;;;;;;;2.08;1.00;;;28.10;77.70;;;;;;4898831;29;20047;-75
2022/09/03 12:08:05;;;;;;;4.45;1.00;;;28.20;76.70;;;;;;4960028;28;20050;-75
2022/09/03 12:11:02;;;;;;;4.13;0.70;;;28.10;76.40;;;;;;4976565;28;20129;-74
2022/09/03 12:13:54;;;;;;;4.00;1.13;;;28.10;76.70;;;;;;4974144;28;20513;-78
2022/09/03 12:16:35;;;;;;;2.83;0.80;;;28.10;76.70;;;;;;4938832;28;20047;-77
2022/09/03 12:19:17;;;;;;;2.47;0.90;;;28.40;75.80;;;;;;4932378;28;20077;-79
2022/09/03 12:21:48;;;;;;;10.15;1.10;;;28.30;74.20;;;;;;5008613;28;20410;-77
2022/09/03 12:24:14;;;;;;;9.00;0.90;;;28.10;74.90;;;;;;4968411;28;20519;-79
2022/09/03 12:26:41;;;;;;;3.25;0.90;;;28.80;76.10;;;;;;4985561;28;20054;-78
2022/09/03 12:29:20;;;;;;;3.67;1.13;;;28.70;74.70;;;;;;4984183;28;20113;-79
2022/09/03 12:31:49;;;;;;;2.30;1.00;;;28.90;73.50;;;;;;4988654;28;20082;-77
2022/09/03 12:34:16;;;;;;;2.72;0.90;;;28.90;74.70;;;;;;4988821;28;20156;-76
2022/09/03 12:36:44;;;;;;;4.03;0.90;;;29.10;75.10;;;;;;4988585;28;20053;-78
2022/09/03 12:39:18;;;;;;;5.57;0.93;;;29.00;73.20;;;;;;4990789;28;20073;-79
2022/09/03 12:41:52;;;;;;;2.22;1.00;;;28.80;73.30;;;;;;4994539;28;20077;-78
2022/09/03 12:44:28;;;;;;;5.50;0.93;;;28.90;73.50;;;;;;5005019;28;20046;-79
2022/09/03 12:47:17;;;;;;;4.50;1.10;;;29.20;72.60;;;;;;4988521;28;20100;-78
2022/09/03 12:49:45;;;;;;;3.35;1.02;;;29.10;73.40;;;;;;4984271;28;20064;-78
2022/09/03 12:52:29;;;;;;;5.22;0.98;;;29.20;72.40;;;;;;4972538;28;20515;-79
2022/09/03 12:55:20;;;;;;;1.75;0.88;;;29.30;73.10;;;;;;5042476;28;20041;-80
2022/09/03 12:57:52;;;;;;;10.10;1.10;;;29.40;71.70;;;;;;5020367;28;20389;-78
2022/09/03 13:00:18;;;;;;;3.05;0.90;;;29.50;72.00;;;;;;5031971;28;20140;-78
2022/09/03 13:03:08;;;;;;;6.22;1.38;;;29.60;71.30;;;;;;5023505;28;20565;-78
2022/09/03 13:05:44;;;;;;;6.78;1.00;;;29.60;71.50;;;;;;4995945;28;20179;-79
2022/09/03 13:08:17;;;;;;;1.85;0.90;;;29.70;71.30;;;;;;5009052;28;20182;-78
2022/09/03 13:10:44;;;;;;;6.03;1.05;;;29.90;71.30;;;;;;4999062;28;20101;-80
2022/09/03 13:13:19;;;;;;;3.22;0.90;;;29.90;70.80;;;;;;5010612;28;20107;-79
2022/09/03 13:16:14;;;;;;;5.40;1.00;;;30.10;70.90;;;;;;5006960;28;20236;-80
2022/09/03 13:19:24;;;;;;;6.85;1.48;;;30.50;70.70;;;;;;5019449;28;20124;-78
2022/09/03 13:21:59;;;;;;;3.55;1.02;;;30.30;70.70;;;;;;4956736;28;20065;-79
2022/09/03 13:25:01;;;;;;;3.80;0.90;;;30.40;70.30;;;;;;4989560;28;20052;-78
2022/09/03 13:27:50;;;;;;;1.50;0.85;;;30.00;69.80;;;;;;5008549;28;20091;-78
2022/09/03 13:30:20;;;;;;;5.93;0.95;;;29.90;69.10;;;;;;5006296;28;20130;-78